createdAt,value
2018-01-01T00:02:03.546Z,100081.41
2018-01-01T00:04:32.237Z,100075.81
2018-01-01T00:07:00.884Z,100074.03
2018-01-01T00:09:29.552Z,100066.63
2018-01-01T00:11:59.019Z,100057.75
2018-01-01T00:14:27.580Z,100058.52
2018-01-01T00:16:56.229Z,100068.87
2018-01-01T00:19:24.959Z,100065.61
2018-01-01T00:21:53.643Z,100068.16
2018-01-01T00:24:22.232Z,100074.33
2018-01-01T00:26:50.900Z,100078.91
2018-01-01T00:29:20.364Z,100072.91
2018-01-01T00:31:49.828Z,100073.55
2018-01-01T00:34:18.815Z,100085.34
2018-01-01T00:36:47.500Z,100089.61
2018-01-01T00:39:16.081Z,100088.23
2018-01-01T00:41:45.083Z,100085.47
2018-01-01T00:44:13.766Z,100084.16
2018-01-01T00:46:42.451Z,100077.56
2018-01-01T00:49:11.184Z,100075.13
2018-01-01T00:51:40.535Z,100069.80
2018-01-01T00:54:09.120Z,100072.40
2018-01-01T00:56:37.905Z,100071.17
2018-01-01T00:59:06.530Z,100073.45
2018-01-01T01:01:35.949Z,100071.36
2018-01-01T01:04:04.641Z,100056.44
2018-01-01T01:06:33.360Z,100052.70
2018-01-01T01:09:02.002Z,100046.59
2018-01-01T01:11:31.960Z,100055.66
2018-01-01T01:14:00.545Z,100047.26
2018-01-01T01:16:29.232Z,100047.54
2018-01-01T01:18:57.916Z,100041.65
2018-01-01T01:21:26.590Z,100037.65
2018-01-01T01:23:55.288Z,100044.81
2018-01-01T01:26:24.282Z,100047.95
2018-01-01T01:28:52.918Z,100049.92
2018-01-01T01:31:22.364Z,100039.69
2018-01-01T01:33:51.100Z,100038.09
2018-01-01T01:36:20.558Z,100037.76
2018-01-01T01:38:49.244Z,100032.02
2018-01-01T01:41:18.028Z,100022.59
2018-01-01T01:43:46.714Z,100025.04
2018-01-01T01:46:15.368Z,100024.31
2018-01-01T01:48:47.832Z,100020.31
2018-01-01T01:51:17.280Z,100016.09
2018-01-01T01:53:45.945Z,100004.92
2018-01-01T01:56:15.039Z,99998.42
2018-01-01T01:58:43.741Z,99995.28
2018-01-01T02:01:12.374Z,99996.02
2018-01-01T02:03:42.036Z,99995.71
2018-01-01T02:06:10.683Z,99991.61
2018-01-01T02:08:39.405Z,99988.05
2018-01-01T02:11:08.191Z,99989.48
2018-01-01T02:13:36.885Z,99997.30
2018-01-01T02:16:05.461Z,99984.19
2018-01-01T02:18:34.148Z,99986.05
2018-01-01T02:21:03.041Z,99982.30
2018-01-01T02:23:31.727Z,99981.83
2018-01-01T02:26:00.611Z,99983.28
2018-01-01T02:28:29.186Z,99985.78
2018-01-01T02:30:57.882Z,99984.47
2018-01-01T02:33:27.084Z,99987.52
2018-01-01T02:35:55.769Z,99993.98
2018-01-01T02:38:24.390Z,99988.37
2018-01-01T02:40:53.962Z,99989.56
2018-01-01T02:43:22.648Z,99979.31
2018-01-01T02:45:51.264Z,99984.77
2018-01-01T02:48:20.426Z,99983.09
2018-01-01T02:50:49.042Z,99987.31
2018-01-01T02:53:17.688Z,99983.38
2018-01-01T02:55:46.580Z,99979.33
2018-01-01T02:58:15.237Z,99985.00
2018-01-01T03:00:43.951Z,99987.77
2018-01-01T03:03:12.944Z,99982.25
2018-01-01T03:05:41.610Z,99986.06
2018-01-01T03:08:10.221Z,99986.08
2018-01-01T03:10:38.902Z,99976.64
2018-01-01T03:13:08.359Z,99977.64
2018-01-01T03:15:37.810Z,99979.55
2018-01-01T03:18:06.802Z,99973.22
2018-01-01T03:20:35.441Z,99971.30
2018-01-01T03:23:04.886Z,99975.98
2018-01-01T03:25:33.571Z,99969.69
2018-01-01T03:28:02.258Z,99972.84
2018-01-01T03:30:30.888Z,99969.55
2018-01-01T03:33:00.451Z,99970.45
2018-01-01T03:35:28.988Z,99971.55
2018-01-01T03:37:58.436Z,99975.81
2018-01-01T03:40:27.482Z,99976.74
2018-01-01T03:42:56.214Z,99968.25
2018-01-01T03:45:24.787Z,99962.52
2018-01-01T03:47:53.584Z,99963.66
2018-01-01T03:50:22.270Z,99964.80
2018-01-01T03:52:50.955Z,99964.14
2018-01-01T03:55:19.644Z,99962.69
2018-01-01T03:57:48.227Z,99970.70
2018-01-01T04:00:16.793Z,99973.79
2018-01-01T04:02:45.593Z,99968.45
2018-01-01T04:05:14.127Z,99963.35
2018-01-01T04:07:43.585Z,99962.75
2018-01-01T04:10:12.369Z,99965.45
2018-01-01T04:12:41.014Z,99963.02
2018-01-01T04:15:09.740Z,99971.30
2018-01-01T04:17:38.536Z,99966.35
2018-01-01T04:20:07.111Z,99955.59
2018-01-01T04:22:35.797Z,99960.34
2018-01-01T04:25:04.523Z,99955.00
2018-01-01T04:27:33.278Z,99960.63
2018-01-01T04:30:01.963Z,99958.93
2018-01-01T04:32:30.704Z,99955.48
2018-01-01T04:34:59.243Z,99956.97
2018-01-01T04:37:27.811Z,99961.00
2018-01-01T04:39:56.596Z,99958.37
2018-01-01T04:42:25.281Z,99956.20
2018-01-01T04:44:53.918Z,99961.39
2018-01-01T04:47:23.476Z,99960.91
2018-01-01T04:49:52.162Z,99958.23
2018-01-01T04:52:20.847Z,99954.09
2018-01-01T04:54:49.889Z,99952.02
2018-01-01T04:57:19.348Z,99952.18
2018-01-01T04:59:48.034Z,99960.73
2018-01-01T05:02:16.713Z,99959.09
2018-01-01T05:04:45.357Z,99950.70
2018-01-01T05:07:14.695Z,99953.53
2018-01-01T05:09:43.489Z,99945.84
2018-01-01T05:12:12.175Z,99962.69
2018-01-01T05:14:40.749Z,99950.59
2018-01-01T05:17:09.720Z,99952.53
2018-01-01T05:19:38.440Z,99945.86
2018-01-01T05:22:07.223Z,99951.41
2018-01-01T05:24:36.009Z,99951.16
2018-01-01T05:27:04.695Z,99956.47
2018-01-01T05:29:33.337Z,99957.98
2018-01-01T05:32:01.935Z,99958.06
2018-01-01T05:34:30.597Z,99955.66
2018-01-01T05:37:00.057Z,99954.29
2018-01-01T05:39:29.049Z,99959.09
2018-01-01T05:41:57.675Z,99955.72
2018-01-01T05:44:27.141Z,99955.13
2018-01-01T05:46:55.985Z,99951.28
2018-01-01T05:49:24.708Z,99954.22
2018-01-01T05:51:53.346Z,99955.52
2018-01-01T05:54:22.904Z,99950.92
2018-01-01T05:56:51.588Z,99960.89
2018-01-01T05:59:20.131Z,99962.05
2018-01-01T06:01:48.748Z,99964.20
2018-01-01T06:04:17.435Z,99958.13
2018-01-01T06:06:46.076Z,99960.71
2018-01-01T06:09:15.732Z,99957.08
2018-01-01T06:11:44.362Z,99963.75
2018-01-01T06:14:13.823Z,99964.73
2018-01-01T06:16:42.816Z,99958.77
2018-01-01T06:19:11.461Z,99965.92
2018-01-01T06:21:40.187Z,99962.09
2018-01-01T06:24:08.864Z,99958.13
2018-01-01T06:26:37.559Z,99955.13
2018-01-01T06:29:06.104Z,99957.91
2018-01-01T06:31:35.679Z,99954.36
2018-01-01T06:34:05.151Z,99955.66
2018-01-01T06:36:33.837Z,99957.42
2018-01-01T06:39:02.513Z,99956.55
2018-01-01T06:41:31.208Z,99957.73
2018-01-01T06:43:59.894Z,99960.20
2018-01-01T06:46:28.634Z,99953.03
2018-01-01T06:48:57.379Z,99954.33
2018-01-01T06:51:26.055Z,99958.44
2018-01-01T06:53:54.735Z,99961.85
2018-01-01T06:56:23.276Z,99955.64
2018-01-01T06:58:52.722Z,99957.16
2018-01-01T07:01:21.603Z,99965.34
2018-01-01T07:03:50.231Z,99967.94
2018-01-01T07:06:18.829Z,99969.38
2018-01-01T07:08:48.693Z,99973.63
2018-01-01T07:11:17.240Z,99975.32
2018-01-01T07:13:45.783Z,99974.57
2018-01-01T07:16:14.640Z,99966.66
2018-01-01T07:18:43.336Z,99968.89
2018-01-01T07:21:11.957Z,99959.72
2018-01-01T07:23:41.728Z,99952.52
2018-01-01T07:26:10.370Z,99950.97
2018-01-01T07:28:39.100Z,99950.83
2018-01-01T07:31:08.031Z,99955.19
2018-01-01T07:33:37.491Z,99952.89
2018-01-01T07:36:06.181Z,99963.09
2018-01-01T07:38:34.956Z,99964.91
2018-01-01T07:41:03.657Z,99971.73
2018-01-01T07:43:33.095Z,99963.59
2018-01-01T07:46:01.809Z,99973.56
2018-01-01T07:48:30.456Z,99970.36
2018-01-01T07:50:59.000Z,99971.91
2018-01-01T07:53:28.141Z,99966.41
2018-01-01T07:55:56.808Z,99968.73
2018-01-01T07:58:26.268Z,99960.51
2018-01-01T08:00:55.457Z,99959.08
2018-01-01T08:03:24.089Z,99952.91
2018-01-01T08:05:53.553Z,99955.47
2018-01-01T08:08:22.437Z,99954.92
2018-01-01T08:10:51.065Z,99971.41
2018-01-01T08:13:21.860Z,99962.16
2018-01-01T08:15:50.405Z,99966.40
2018-01-01T08:18:19.065Z,99963.39
2018-01-01T08:20:48.537Z,99959.99
2018-01-01T08:23:17.101Z,99962.62
2018-01-01T08:25:45.744Z,99953.48
2018-01-01T08:28:15.399Z,99952.48
2018-01-01T08:30:44.095Z,99942.56
2018-01-01T08:33:12.782Z,99932.04
2018-01-01T08:35:41.457Z,99937.25
2018-01-01T08:38:10.156Z,99939.89
2018-01-01T08:40:38.839Z,99932.13
2018-01-01T08:43:07.623Z,99930.84
2018-01-01T08:45:36.310Z,99936.33
2018-01-01T08:48:04.995Z,99927.80
2018-01-01T08:50:33.725Z,99924.59
2018-01-01T08:53:03.189Z,99918.44
2018-01-01T08:55:31.807Z,99914.97
2018-01-01T08:58:01.471Z,99906.95
2018-01-01T09:00:30.922Z,99893.48
2018-01-01T09:03:00.390Z,99898.38
2018-01-01T09:05:29.329Z,99892.81
2018-01-01T09:07:58.672Z,99890.03
2018-01-01T09:10:27.318Z,99896.03
2018-01-01T09:12:57.075Z,99884.00
2018-01-01T09:15:25.761Z,99886.22
2018-01-01T09:17:54.446Z,99891.20
2018-01-01T09:20:23.231Z,99888.77
2018-01-01T09:22:51.915Z,99885.48
2018-01-01T09:25:20.603Z,99868.70
2018-01-01T09:27:49.543Z,99860.55
2018-01-01T09:30:19.004Z,99858.00
2018-01-01T09:32:47.625Z,99858.38
2018-01-01T09:35:17.180Z,99850.95
2018-01-01T09:37:45.873Z,99844.91
2018-01-01T09:40:14.459Z,99837.69
2018-01-01T09:42:43.297Z,99838.25
2018-01-01T09:45:12.753Z,99839.06
2018-01-01T09:47:41.439Z,99833.15
2018-01-01T09:50:10.432Z,99839.95
2018-01-01T09:52:39.117Z,99833.84
2018-01-01T09:55:07.739Z,99819.64
2018-01-01T09:57:37.456Z,99807.30
2018-01-01T10:00:06.917Z,99805.30
2018-01-01T10:02:35.463Z,99808.02
2018-01-01T10:05:04.180Z,99801.92
2018-01-01T10:07:32.828Z,99798.50
2018-01-01T10:10:01.551Z,99784.94
2018-01-01T10:12:30.347Z,99788.39
2018-01-01T10:14:59.032Z,99778.87
2018-01-01T10:17:27.671Z,99774.77
2018-01-01T10:19:57.492Z,99769.20
2018-01-01T10:22:26.161Z,99765.25
2018-01-01T10:24:55.617Z,99759.16
2018-01-01T10:27:24.346Z,99765.00
2018-01-01T10:29:53.703Z,99756.57
2018-01-01T10:32:22.332Z,99754.91
2018-01-01T10:34:51.846Z,99755.00
2018-01-01T10:37:21.295Z,99758.14
2018-01-01T10:39:49.936Z,99752.59
2018-01-01T10:42:18.728Z,99747.88
2018-01-01T10:44:47.451Z,99745.12
2018-01-01T10:47:16.135Z,99740.85
2018-01-01T10:49:44.931Z,99740.80
2018-01-01T10:52:13.618Z,99737.36
2018-01-01T10:54:42.239Z,99731.02
2018-01-01T10:57:11.660Z,99735.84
2018-01-01T10:59:40.387Z,99732.89
2018-01-01T11:02:09.074Z,99732.41
2018-01-01T11:04:37.857Z,99728.41
2018-01-01T11:07:06.507Z,99723.39
2018-01-01T11:09:35.230Z,99714.98
2018-01-01T11:12:04.024Z,99710.87
2018-01-01T11:14:32.710Z,99710.33
2018-01-01T11:17:01.396Z,99702.98
2018-01-01T11:19:30.488Z,99711.33
2018-01-01T11:21:59.066Z,99710.58
2018-01-01T11:24:27.860Z,99698.97
2018-01-01T11:26:56.455Z,99699.70
2018-01-01T11:29:25.015Z,99682.47
2018-01-01T11:31:53.708Z,99678.10
2018-01-01T11:34:22.699Z,99691.20
2018-01-01T11:36:51.386Z,99689.16
2018-01-01T11:39:20.040Z,99689.59
2018-01-01T11:41:48.908Z,99689.81
2018-01-01T11:44:18.326Z,99682.11
2018-01-01T11:46:47.052Z,99679.65
2018-01-01T11:49:15.846Z,99674.83
2018-01-01T11:51:44.535Z,99670.36
2018-01-01T11:54:13.108Z,99665.45
2018-01-01T11:56:41.902Z,99666.75
2018-01-01T11:59:10.587Z,99658.63
2018-01-01T12:01:39.224Z,99658.16
2018-01-01T12:04:08.981Z,99651.83
2018-01-01T12:06:37.667Z,99648.81
2018-01-01T12:09:06.453Z,99636.04
2018-01-01T12:11:35.146Z,99631.94
2018-01-01T12:14:03.863Z,99628.40
2018-01-01T12:16:33.334Z,99623.05
2018-01-01T12:19:02.303Z,99619.95
2018-01-01T12:21:31.831Z,99622.13
2018-01-01T12:24:00.466Z,99622.66
2018-01-01T12:26:29.932Z,99620.18
2018-01-01T12:28:58.699Z,99621.93
2018-01-01T12:31:27.343Z,99624.48
2018-01-01T12:33:55.973Z,99621.10
2018-01-01T12:36:24.606Z,99617.73
2018-01-01T12:38:54.058Z,99612.91
2018-01-01T12:41:22.852Z,99607.09
2018-01-01T12:43:51.538Z,99605.61
2018-01-01T12:46:20.174Z,99611.78
2018-01-01T12:48:50.852Z,99612.11
2018-01-01T12:51:19.434Z,99615.23
2018-01-01T12:53:48.125Z,99615.69
2018-01-01T12:56:17.007Z,99614.98
2018-01-01T12:58:46.039Z,99612.55
2018-01-01T13:01:14.687Z,99612.66
2018-01-01T13:03:43.497Z,99604.73
2018-01-01T13:06:12.221Z,99595.83
2018-01-01T13:08:40.952Z,99601.20
2018-01-01T13:11:09.683Z,99598.59
2018-01-01T13:13:39.152Z,99593.09
2018-01-01T13:16:07.723Z,99591.88
2018-01-01T13:18:36.661Z,99600.25
2018-01-01T13:21:06.124Z,99592.39
2018-01-01T13:23:34.809Z,99593.08
2018-01-01T13:26:03.541Z,99593.63
2018-01-01T13:28:32.960Z,99592.95
2018-01-01T13:31:01.679Z,99587.63
2018-01-01T13:33:30.368Z,99589.41
2018-01-01T13:35:59.014Z,99591.27
2018-01-01T13:38:27.441Z,99584.14
2018-01-01T13:40:56.324Z,99583.86
2018-01-01T13:43:25.009Z,99580.48
2018-01-01T13:45:53.560Z,99583.39
2018-01-01T13:48:22.380Z,99577.62
2018-01-01T13:50:51.066Z,99582.17
2018-01-01T13:53:19.689Z,99578.99
2018-01-01T13:55:49.308Z,99584.17
2018-01-01T13:58:18.760Z,99589.41
2018-01-01T14:00:47.256Z,99590.20
2018-01-01T14:03:15.719Z,99596.27
2018-01-01T14:05:44.146Z,99594.77
2018-01-01T14:08:13.398Z,99590.16
2018-01-01T14:10:41.864Z,99593.36
2018-01-01T14:13:10.294Z,99588.51
2018-01-01T14:15:39.486Z,99592.89
2018-01-01T14:18:09.047Z,99595.44
2018-01-01T14:20:37.470Z,99598.67
2018-01-01T14:23:07.470Z,99595.80
2018-01-01T14:25:35.925Z,99599.82
2018-01-01T14:28:04.341Z,99591.67
2018-01-01T14:30:32.751Z,99591.84
2018-01-01T14:33:02.173Z,99593.18
2018-01-01T14:35:30.595Z,99594.94
2018-01-01T14:37:59.010Z,99586.47
2018-01-01T14:40:28.243Z,99575.07
2018-01-01T14:42:56.676Z,99568.76
2018-01-01T14:45:54.606Z,99563.31
2018-01-01T14:48:23.102Z,99560.25
2018-01-01T14:50:51.561Z,99549.02
2018-01-01T14:53:20.022Z,99551.26
2018-01-01T14:55:49.210Z,99545.53
2018-01-01T14:58:18.397Z,99551.47
2018-01-01T15:00:47.797Z,99557.69
2018-01-01T15:03:16.986Z,99558.86
2018-01-01T15:05:45.402Z,99558.84
2018-01-01T15:08:13.865Z,99563.20
2018-01-01T15:10:42.293Z,99566.91
2018-01-01T15:13:10.707Z,99563.52
2018-01-01T15:15:39.178Z,99561.81
2018-01-01T15:18:07.593Z,99558.66
2018-01-01T15:20:36.014Z,99565.97
2018-01-01T15:23:04.482Z,99573.06
2018-01-01T15:25:32.906Z,99576.75
2018-01-01T15:28:01.330Z,99579.21
2018-01-01T15:30:30.008Z,99575.64
2018-01-01T15:32:58.454Z,99582.66
2018-01-01T15:35:26.881Z,99588.86
2018-01-01T15:37:55.350Z,99579.70
2018-01-01T15:40:23.775Z,99575.70
2018-01-01T15:42:52.210Z,99572.70
2018-01-01T15:45:20.890Z,99572.23
2018-01-01T15:47:49.316Z,99567.09
2018-01-01T15:50:17.745Z,99557.84
2018-01-01T15:52:46.357Z,99563.45
2018-01-01T15:55:14.787Z,99564.08
2018-01-01T15:57:43.977Z,99568.27
2018-01-01T16:00:12.463Z,99580.22
2018-01-01T16:02:41.659Z,99574.66
2018-01-01T16:05:10.854Z,99570.98
2018-01-01T16:07:40.290Z,99572.05
2018-01-01T16:10:08.724Z,99572.16
2018-01-01T16:12:37.150Z,99570.23
2018-01-01T16:15:05.626Z,99567.03
2018-01-01T16:17:34.054Z,99577.86
2018-01-01T16:20:02.485Z,99576.11
2018-01-01T16:22:31.898Z,99572.88
2018-01-01T16:25:00.322Z,99574.73
2018-01-01T16:27:28.755Z,99571.23
2018-01-01T16:29:57.222Z,99581.09
2018-01-01T16:32:26.410Z,99581.44
2018-01-01T16:34:55.602Z,99577.21
2018-01-01T16:37:24.997Z,99578.06
2018-01-01T16:39:54.219Z,99589.31
2018-01-01T16:42:23.406Z,99588.65
2018-01-01T16:44:52.630Z,99580.58
2018-01-01T16:47:21.109Z,99574.72
2018-01-01T16:49:49.530Z,99571.98
2018-01-01T16:52:18.165Z,99580.88
2018-01-01T16:54:46.589Z,99580.73
2018-01-01T16:57:15.014Z,99572.84
2018-01-01T16:59:44.249Z,99567.90
2018-01-01T17:02:12.672Z,99567.97
2018-01-01T17:04:41.094Z,99576.23
2018-01-01T17:07:09.773Z,99576.23
2018-01-01T17:09:38.214Z,99573.88
2018-01-01T17:12:06.640Z,99571.20
2018-01-01T17:14:35.134Z,99565.03
2018-01-01T17:17:03.558Z,99572.70
2018-01-01T17:19:31.978Z,99576.52
2018-01-01T17:22:00.457Z,99576.37
2018-01-01T17:24:28.878Z,99581.73
2018-01-01T17:26:57.306Z,99591.26
2018-01-01T17:29:26.570Z,99587.38
2018-01-01T17:31:55.082Z,99595.68
2018-01-01T17:34:24.289Z,99590.69
2018-01-01T17:36:52.802Z,99593.20
2018-01-01T17:39:21.260Z,99590.91
2018-01-01T17:41:49.719Z,99603.17
2018-01-01T17:44:18.989Z,99604.84
2018-01-01T17:46:47.453Z,99598.59
2018-01-01T17:49:15.922Z,99588.95
2018-01-01T17:51:44.413Z,99587.12
2018-01-01T17:54:12.874Z,99586.91
2018-01-01T17:56:41.336Z,99594.19
2018-01-01T17:59:09.838Z,99585.77
2018-01-01T18:01:38.302Z,99574.50
2018-01-01T18:04:06.760Z,99567.92
2018-01-01T18:06:36.390Z,99574.08
2018-01-01T18:09:04.893Z,99572.91
2018-01-01T18:11:33.320Z,99580.97
2018-01-01T18:14:02.753Z,99584.69
2018-01-01T18:16:31.182Z,99589.70
2018-01-01T18:18:59.602Z,99585.73
2018-01-01T18:21:28.087Z,99585.17
2018-01-01T18:23:56.822Z,99582.70
2018-01-01T18:26:26.179Z,99578.27
2018-01-01T18:28:54.650Z,99572.83
2018-01-01T18:31:23.074Z,99568.35
2018-01-01T18:33:51.529Z,99578.41
2018-01-01T18:36:19.997Z,99570.34
2018-01-01T18:38:48.414Z,99560.17
2018-01-01T18:41:16.870Z,99552.77
2018-01-01T18:43:45.451Z,99548.70
2018-01-01T18:46:13.903Z,99539.95
2018-01-01T18:48:43.085Z,99548.91
2018-01-01T18:51:11.546Z,99553.22
2018-01-01T18:53:40.022Z,99544.44
2018-01-01T18:56:08.442Z,99546.54
2018-01-01T18:58:37.662Z,99553.07
2018-01-01T19:01:06.082Z,99553.42
2018-01-01T19:03:34.499Z,99551.58
2018-01-01T19:06:03.723Z,99557.14
2018-01-01T19:08:32.137Z,99557.44
2018-01-01T19:11:00.555Z,99561.11
2018-01-01T19:13:29.883Z,99567.53
2018-01-01T19:15:58.310Z,99568.55
2018-01-01T19:18:26.734Z,99573.57
2018-01-01T19:20:55.193Z,99567.09
2018-01-01T19:23:24.378Z,99557.50
2018-01-01T19:25:52.801Z,99553.33
2018-01-01T19:28:21.491Z,99556.61
2018-01-01T19:30:49.922Z,99550.20
2018-01-01T19:33:18.358Z,99559.77
2018-01-01T19:35:46.818Z,99562.66
2018-01-01T19:38:15.246Z,99563.59
2018-01-01T19:40:43.674Z,99563.00
2018-01-01T19:43:12.145Z,99574.44
2018-01-01T19:45:41.384Z,99577.10
2018-01-01T19:48:09.829Z,99563.91
2018-01-01T19:50:38.526Z,99547.45
2018-01-01T19:53:06.954Z,99543.20
2018-01-01T19:55:35.389Z,99544.66
2018-01-01T19:58:03.862Z,99550.36
2018-01-01T20:00:32.290Z,99536.24
2018-01-01T20:03:00.709Z,99533.24
2018-01-01T20:05:30.845Z,99529.53
2018-01-01T20:07:59.261Z,99527.86
2018-01-01T20:10:27.682Z,99530.48
2018-01-01T20:12:57.102Z,99531.42
2018-01-01T20:15:25.549Z,99528.48
2018-01-01T20:17:53.969Z,99527.42
2018-01-01T20:20:22.422Z,99527.55
2018-01-01T20:22:51.662Z,99530.33
2018-01-01T20:25:20.082Z,99534.14
2018-01-01T20:27:48.542Z,99538.14
2018-01-01T20:30:16.962Z,99539.62
2018-01-01T20:32:46.150Z,99535.32
2018-01-01T20:35:15.370Z,99542.11
2018-01-01T20:37:44.559Z,99538.58
2018-01-01T20:40:13.834Z,99545.64
2018-01-01T20:42:42.330Z,99546.98
2018-01-01T20:45:11.518Z,99546.39
2018-01-01T20:47:39.998Z,99548.52
2018-01-01T20:50:09.337Z,99547.30
2018-01-01T20:52:37.766Z,99542.94
2018-01-01T20:55:06.185Z,99537.92
2018-01-01T20:57:34.666Z,99536.77
2018-01-01T21:00:03.888Z,99527.41
2018-01-01T21:02:32.310Z,99532.58
2018-01-01T21:05:00.942Z,99538.30
2018-01-01T21:07:29.362Z,99539.10
2018-01-01T21:09:57.794Z,99541.91
2018-01-01T21:12:27.029Z,99542.63
2018-01-01T21:14:55.445Z,99546.64
2018-01-01T21:17:23.866Z,99549.82
2018-01-01T21:19:52.533Z,99551.03
2018-01-01T21:22:21.716Z,99543.17
2018-01-01T21:24:50.900Z,99531.83
2018-01-01T21:27:19.354Z,99520.78
2018-01-01T21:29:47.777Z,99515.07
2018-01-01T21:32:16.957Z,99523.33
2018-01-01T21:34:45.431Z,99526.08
2018-01-01T21:37:14.638Z,99527.59
2018-01-01T21:39:43.826Z,99525.66
2018-01-01T21:42:12.453Z,99523.44
2018-01-01T21:44:40.867Z,99520.58
2018-01-01T21:47:09.313Z,99513.23
2018-01-01T21:49:37.786Z,99504.03
2018-01-01T21:52:06.210Z,99500.52
2018-01-01T21:54:34.635Z,99514.68
2018-01-01T21:57:03.869Z,99510.90
2018-01-01T21:59:32.342Z,99516.34
2018-01-01T22:02:01.502Z,99508.36
2018-01-01T22:04:30.721Z,99506.48
2018-01-01T22:06:59.902Z,99504.31
2018-01-01T22:09:29.088Z,99509.76
2018-01-01T22:11:57.540Z,99499.02
2018-01-01T22:14:25.954Z,99498.34
2018-01-01T22:16:55.142Z,99500.76
2018-01-01T22:19:25.266Z,99498.84
2018-01-01T22:21:53.678Z,99489.20
2018-01-01T22:24:22.096Z,99480.05
2018-01-01T22:26:50.738Z,99477.67
2018-01-01T22:29:19.913Z,99472.47
2018-01-01T22:31:49.093Z,99455.13
2018-01-01T22:34:17.714Z,99450.55
2018-01-01T22:36:46.893Z,99450.98
2018-01-01T22:39:16.069Z,99437.95
2018-01-01T22:41:44.630Z,99439.55
2018-01-01T22:44:13.041Z,99434.48
2018-01-01T22:46:42.226Z,99423.84
2018-01-01T22:49:10.689Z,99433.24
2018-01-01T22:51:39.101Z,99428.30
2018-01-01T22:54:07.517Z,99420.91
2018-01-01T22:56:35.977Z,99418.58
2018-01-01T22:59:05.158Z,99416.63
2018-01-01T23:01:33.570Z,99421.87
2018-01-01T23:04:02.154Z,99411.82
2018-01-01T23:06:30.569Z,99403.86
2018-01-01T23:08:58.982Z,99405.03
2018-01-01T23:11:27.433Z,99401.82
2018-01-01T23:13:55.845Z,99401.92
2018-01-01T23:16:25.033Z,99401.45
2018-01-01T23:18:54.993Z,99407.61
2018-01-01T23:21:23.406Z,99411.20
2018-01-01T23:23:51.844Z,99401.78
2018-01-01T23:26:20.533Z,99392.64
2018-01-01T23:28:48.982Z,99399.84
2018-01-01T23:31:18.165Z,99397.27
2018-01-01T23:33:46.626Z,99392.91
2018-01-01T23:36:15.042Z,99386.79
2018-01-01T23:38:44.961Z,99375.26
2018-01-01T23:41:14.186Z,99373.00
2018-01-01T23:43:42.597Z,99367.19
2018-01-01T23:46:11.010Z,99371.08
2018-01-01T23:48:40.242Z,99373.50
2018-01-01T23:51:08.654Z,99366.97
2018-01-01T23:53:37.089Z,99371.11
2018-01-01T23:56:05.542Z,99366.21
2018-01-01T23:58:33.953Z,99365.81
